sensor_id;sensor_type;location;lat;lon;timestamp;P1;durP1;ratioP1;P2;durP2;ratioP2
37365;SDS011;23239;51.504;7.456;2023-07-09T00:00:00;8.5;;;4.9;;
37365;SDS011;23239;51.504;7.456;2023-07-09T00:01:00;8.5;;;4.9;;
37365;SDS011;23239;51.504;7.456;2023-07-09T00:02:00;10.1;;;5.2;;
37365;SDS011;23239;51.504;7.456;2023-07-09T00:03:00;10.1;;;5.2;;
37365;SDS011;23239;51.504;7.456;2023-07-09T00:04:00;10.1;;;5.2;;
37365;SDS011;23239;51.504;7.456;2023-07-09T00:05:00;10.1;;;5.2;;
37365;SDS011;23239;51.504;7.456;2023-07-09T00:06:00;10.1;;;5.2;;
37365;SDS011;23239;51.504;7.456;2023-07-09T00:07:00;8.1;;;5.1;;
37365;SDS011;23239;51.504;7.456;2023-07-09T00:08:00;8.1;;;5.1;;
37365;SDS011;23239;51.504;7.456;2023-07-09T00:09:00;8.1;;;5.1;;
37365;SDS011;23239;51.504;7.456;2023-07-09T00:10:00;8.1;;;5.1;;
37365;SDS011;23239;51.504;7.456;2023-07-09T00:11:00;8.1;;;5.1;;
37365;SDS011;23239;51.504;7.456;2023-07-09T00:12:00;7.9;;;5.3;;
37365;SDS011;23239;51.504;7.456;2023-07-09T00:13:00;7.9;;;5.3;;
37365;SDS011;23239;51.504;7.456;2023-07-09T00:14:00;7.9;;;5.3;;
37365;SDS011;23239;51.504;7.456;2023-07-09T00:15:00;7.9;;;5.3;;
37365;SDS011;23239;51.504;7.456;2023-07-09T00:16:00;7.9;;;5.3;;
37365;SDS011;23239;51.504;7.456;2023-07-09T00:17:00;7.7;;;5.1;;
37365;SDS011;23239;51.504;7.456;2023-07-09T00:18:00;7.7;;;5.1;;
37365;SDS011;23239;51.504;7.456;2023-07-09T00:19:00;7.7;;;5.1;;
37365;SDS011;23239;51.504;7.456;2023-07-09T00:20:00;7.7;;;5.1;;
37365;SDS011;23239;51.504;7.456;2023-07-09T00:21:00;7.7;;;5.1;;
37365;SDS011;23239;51.504;7.456;2023-07-09T00:22:00;7.1;;;5.0;;
37365;SDS011;23239;51.504;7.456;2023-07-09T00:23:00;7.1;;;5.0;;
37365;SDS011;23239;51.504;7.456;2023-07-09T00:24:00;7.1;;;5.0;;
37365;SDS011;23239;51.504;7.456;2023-07-09T00:25:00;7.1;;;5.0;;
37365;SDS011;23239;51.504;7.456;2023-07-09T00:26:00;7.1;;;5.0;;
37365;SDS011;23239;51.504;7.456;2023-07-09T00:27:00;7.1;;;5.5;;
37365;SDS011;23239;51.504;7.456;2023-07-09T00:28:00;8.5;;;5.5;;
37365;SDS011;23239;51.504;7.456;2023-07-09T00:29:00;8.5;;;5.5;;
37365;SDS011;23239;51.504;7.456;2023-07-09T00:30:00;8.5;;;5.5;;
37365;SDS011;23239;51.504;7.456;2023-07-09T00:31:00;8.5;;;5.5;;
37365;SDS011;23239;51.504;7.456;2023-07-09T00:32:00;8.5;;;5.5;;
37365;SDS011;23239;51.504;7.456;2023-07-09T00:33:00;8.6;;;5.2;;
37365;SDS011;23239;51.504;7.456;2023-07-09T00:34:00;8.6;;;5.2;;
37365;SDS011;23239;51.504;7.456;2023-07-09T00:35:00;8.6;;;5.2;;
37365;SDS011;23239;51.504;7.456;2023-07-09T00:36:00;8.6;;;5.2;;
37365;SDS011;23239;51.504;7.456;2023-07-09T00:37:00;8.6;;;5.2;;
37365;SDS011;23239;51.504;7.456;2023-07-09T00:38:00;9.5;;;5.5;;
37365;SDS011;23239;51.504;7.456;2023-07-09T00:39:00;9.5;;;5.5;;
37365;SDS011;23239;51.504;7.456;2023-07-09T00:40:00;9.5;;;5.5;;
37365;SDS011;23239;51.504;7.456;2023-07-09T00:41:02;9.5;;;5.5;;
37365;SDS011;23239;51.504;7.456;2023-07-09T00:42:00;9.5;;;5.5;;
37365;SDS011;23239;51.504;7.456;2023-07-09T00:43:00;8.1;;;5.2;;
37365;SDS011;23239;51.504;7.456;2023-07-09T00:44:13;8.1;;;5.2;;
37365;SDS011;23239;51.504;7.456;2023-07-09T00:45:00;8.1;;;5.2;;
37365;SDS011;23239;51.504;7.456;2023-07-09T00:48:01;7.4;;;5.1;;
37365;SDS011;23239;51.504;7.456;2023-07-09T00:49:01;7.4;;;5.1;;
37365;SDS011;23239;51.504;7.456;2023-07-09T00:50:03;7.4;;;5.1;;
37365;SDS011;23239;51.504;7.456;2023-07-09T00:51:00;7.4;;;5.1;;
37365;SDS011;23239;51.504;7.456;2023-07-09T00:52:01;7.4;;;5.1;;
37365;SDS011;23239;51.504;7.456;2023-07-09T00:53:01;9.2;;;5.5;;
37365;SDS011;23239;51.504;7.456;2023-07-09T00:54:01;9.2;;;5.5;;
37365;SDS011;23239;51.504;7.456;2023-07-09T00:55:01;9.2;;;5.5;;
37365;SDS011;23239;51.504;7.456;2023-07-09T00:56:02;9.2;;;5.5;;
37365;SDS011;23239;51.504;7.456;2023-07-09T00:57:01;9.2;;;5.5;;
37365;SDS011;23239;51.504;7.456;2023-07-09T00:58:01;6.7;;;5.3;;
37365;SDS011;23239;51.504;7.456;2023-07-09T00:59:00;6.7;;;5.3;;
37365;SDS011;23239;51.504;7.456;2023-07-09T01:00:03;6.7;;;5.3;;
37365;SDS011;23239;51.504;7.456;2023-07-09T01:01:00;6.7;;;5.3;;
37365;SDS011;23239;51.504;7.456;2023-07-09T01:02:00;6.7;;;5.3;;
37365;SDS011;23239;51.504;7.456;2023-07-09T01:03:00;6.4;;;5.2;;
37365;SDS011;23239;51.504;7.456;2023-07-09T01:04:00;6.4;;;5.2;;
37365;SDS011;23239;51.504;7.456;2023-07-09T01:05:00;6.4;;;5.2;;
37365;SDS011;23239;51.504;7.456;2023-07-09T01:06:00;6.4;;;5.2;;
37365;SDS011;23239;51.504;7.456;2023-07-09T01:07:00;6.4;;;5.2;;
37365;SDS011;23239;51.504;7.456;2023-07-09T01:08:00;9.4;;;5.5;;
37365;SDS011;23239;51.504;7.456;2023-07-09T01:09:00;9.4;;;5.5;;
37365;SDS011;23239;51.504;7.456;2023-07-09T01:10:00;9.4;;;5.5;;
37365;SDS011;23239;51.504;7.456;2023-07-09T01:11:00;9.4;;;5.5;;
37365;SDS011;23239;51.504;7.456;2023-07-09T01:12:01;9.4;;;5.5;;
37365;SDS011;23239;51.504;7.456;2023-07-09T01:13:00;8.8;;;5.8;;
37365;SDS011;23239;51.504;7.456;2023-07-09T01:14:00;8.8;;;5.8;;
37365;SDS011;23239;51.504;7.456;2023-07-09T01:15:00;8.8;;;5.8;;
37365;SDS011;23239;51.504;7.456;2023-07-09T01:16:00;8.8;;;5.8;;
37365;SDS011;23239;51.504;7.456;2023-07-09T01:17:00;8.8;;;5.8;;
37365;SDS011;23239;51.504;7.456;2023-07-09T01:18:00;10.5;;;6.1;;
37365;SDS011;23239;51.504;7.456;2023-07-09T01:19:00;10.5;;;6.1;;
37365;SDS011;23239;51.504;7.456;2023-07-09T01:20:00;10.5;;;6.1;;
37365;SDS011;23239;51.504;7.456;2023-07-09T01:21:01;10.5;;;6.1;;
37365;SDS011;23239;51.504;7.456;2023-07-09T01:22:00;10.5;;;6.1;;
37365;SDS011;23239;51.504;7.456;2023-07-09T01:23:00;9.7;;;6.3;;
37365;SDS011;23239;51.504;7.456;2023-07-09T01:24:10;9.7;;;6.3;;
37365;SDS011;23239;51.504;7.456;2023-07-09T01:25:01;9.7;;;6.3;;
37365;SDS011;23239;51.504;7.456;2023-07-09T01:26:00;9.7;;;6.3;;
37365;SDS011;23239;51.504;7.456;2023-07-09T01:27:00;9.7;;;6.3;;
37365;SDS011;23239;51.504;7.456;2023-07-09T01:28:00;9.1;;;6.0;;
37365;SDS011;23239;51.504;7.456;2023-07-09T01:29:00;9.1;;;6.0;;
37365;SDS011;23239;51.504;7.456;2023-07-09T01:30:00;9.1;;;6.0;;
37365;SDS011;23239;51.504;7.456;2023-07-09T01:31:00;9.1;;;6.0;;
37365;SDS011;23239;51.504;7.456;2023-07-09T01:32:00;9.1;;;6.0;;
37365;SDS011;23239;51.504;7.456;2023-07-09T01:33:00;9.3;;;6.5;;
37365;SDS011;23239;51.504;7.456;2023-07-09T01:34:00;9.3;;;6.5;;
37365;SDS011;23239;51.504;7.456;2023-07-09T01:35:01;9.3;;;6.5;;
37365;SDS011;23239;51.504;7.456;2023-07-09T01:36:00;9.3;;;6.5;;
37365;SDS011;23239;51.504;7.456;2023-07-09T01:37:00;9.3;;;6.5;;
37365;SDS011;23239;51.504;7.456;2023-07-09T01:38:00;10.5;;;6.4;;
37365;SDS011;23239;51.504;7.456;2023-07-09T01:39:00;10.5;;;6.4;;
37365;SDS011;23239;51.504;7.456;2023-07-09T01:40:00;10.5;;;6.4;;
37365;SDS011;23239;51.504;7.456;2023-07-09T01:41:00;10.5;;;6.4;;
37365;SDS011;23239;51.504;7.456;2023-07-09T01:42:00;10.5;;;6.4;;
37365;SDS011;23239;51.504;7.456;2023-07-09T01:43:00;9.1;;;6.4;;
37365;SDS011;23239;51.504;7.456;2023-07-09T01:44:00;9.1;;;6.4;;
37365;SDS011;23239;51.504;7.456;2023-07-09T01:45:00;9.1;;;6.4;;
37365;SDS011;23239;51.504;7.456;2023-07-09T01:46:00;9.1;;;6.4;;
37365;SDS011;23239;51.504;7.456;2023-07-09T01:47:00;9.1;;;6.4;;
37365;SDS011;23239;51.504;7.456;2023-07-09T01:48:01;8.3;;;5.9;;
37365;SDS011;23239;51.504;7.456;2023-07-09T01:49:00;8.3;;;5.9;;
37365;SDS011;23239;51.504;7.456;2023-07-09T01:50:00;8.3;;;5.9;;
37365;SDS011;23239;51.504;7.456;2023-07-09T01:51:00;8.3;;;5.9;;
37365;SDS011;23239;51.504;7.456;2023-07-09T01:52:00;8.3;;;5.9;;
37365;SDS011;23239;51.504;7.456;2023-07-09T01:53:00;8.1;;;5.7;;
37365;SDS011;23239;51.504;7.456;2023-07-09T01:54:00;8.1;;;5.7;;
37365;SDS011;23239;51.504;7.456;2023-07-09T01:55:00;8.1;;;5.7;;
37365;SDS011;23239;51.504;7.456;2023-07-09T01:56:00;8.1;;;5.7;;
37365;SDS011;23239;51.504;7.456;2023-07-09T01:58:00;9.3;;;5.6;;
37365;SDS011;23239;51.504;7.456;2023-07-09T01:59:00;9.3;;;5.6;;
37365;SDS011;23239;51.504;7.456;2023-07-09T02:00:01;9.3;;;5.6;;
37365;SDS011;23239;51.504;7.456;2023-07-09T02:01:00;9.3;;;5.6;;
37365;SDS011;23239;51.504;7.456;2023-07-09T02:02:00;9.3;;;5.6;;
37365;SDS011;23239;51.504;7.456;2023-07-09T02:03:00;7.3;;;5.3;;
37365;SDS011;23239;51.504;7.456;2023-07-09T02:04:00;7.3;;;5.3;;
37365;SDS011;23239;51.504;7.456;2023-07-09T02:05:00;7.3;;;5.3;;
37365;SDS011;23239;51.504;7.456;2023-07-09T02:06:00;7.3;;;5.3;;
37365;SDS011;23239;51.504;7.456;2023-07-09T02:07:00;7.3;;;5.3;;
37365;SDS011;23239;51.504;7.456;2023-07-09T02:08:00;10.2;;;5.2;;
37365;SDS011;23239;51.504;7.456;2023-07-09T02:09:00;10.2;;;5.2;;
37365;SDS011;23239;51.504;7.456;2023-07-09T02:10:00;10.2;;;5.2;;
37365;SDS011;23239;51.504;7.456;2023-07-09T02:11:00;10.2;;;5.2;;
37365;SDS011;23239;51.504;7.456;2023-07-09T02:12:00;10.2;;;5.2;;
37365;SDS011;23239;51.504;7.456;2023-07-09T02:13:00;10.5;;;5.3;;
37365;SDS011;23239;51.504;7.456;2023-07-09T02:14:00;10.5;;;5.3;;
37365;SDS011;23239;51.504;7.456;2023-07-09T02:15:00;10.5;;;5.3;;
37365;SDS011;23239;51.504;7.456;2023-07-09T02:16:00;10.5;;;5.3;;
37365;SDS011;23239;51.504;7.456;2023-07-09T02:17:00;10.5;;;5.3;;
37365;SDS011;23239;51.504;7.456;2023-07-09T02:18:00;7.0;;;5.1;;
37365;SDS011;23239;51.504;7.456;2023-07-09T02:19:00;7.0;;;5.1;;
37365;SDS011;23239;51.504;7.456;2023-07-09T02:20:00;7.0;;;5.1;;
37365;SDS011;23239;51.504;7.456;2023-07-09T02:21:00;7.0;;;5.1;;
37365;SDS011;23239;51.504;7.456;2023-07-09T02:22:00;7.0;;;5.1;;
37365;SDS011;23239;51.504;7.456;2023-07-09T02:23:00;7.3;;;4.7;;
37365;SDS011;23239;51.504;7.456;2023-07-09T02:24:00;7.3;;;4.7;;
37365;SDS011;23239;51.504;7.456;2023-07-09T02:25:00;7.3;;;4.7;;
37365;SDS011;23239;51.504;7.456;2023-07-09T02:26:00;7.3;;;4.7;;
37365;SDS011;23239;51.504;7.456;2023-07-09T02:27:01;7.3;;;4.7;;
37365;SDS011;23239;51.504;7.456;2023-07-09T02:28:00;7.8;;;4.9;;
37365;SDS011;23239;51.504;7.456;2023-07-09T02:29:00;7.8;;;4.9;;
37365;SDS011;23239;51.504;7.456;2023-07-09T02:30:00;7.8;;;4.9;;
37365;SDS011;23239;51.504;7.456;2023-07-09T02:31:00;7.8;;;4.9;;
37365;SDS011;23239;51.504;7.456;2023-07-09T02:32:00;7.8;;;4.9;;
37365;SDS011;23239;51.504;7.456;2023-07-09T02:33:00;8.1;;;4.7;;
37365;SDS011;23239;51.504;7.456;2023-07-09T02:34:00;8.1;;;4.7;;
37365;SDS011;23239;51.504;7.456;2023-07-09T02:35:00;8.1;;;4.7;;
37365;SDS011;23239;51.504;7.456;2023-07-09T02:36:00;8.1;;;4.7;;
37365;SDS011;23239;51.504;7.456;2023-07-09T02:37:00;8.1;;;4.7;;
37365;SDS011;23239;51.504;7.456;2023-07-09T02:38:00;9.0;;;5.1;;
37365;SDS011;23239;51.504;7.456;2023-07-09T02:39:00;9.0;;;5.1;;
37365;SDS011;23239;51.504;7.456;2023-07-09T02:40:00;9.0;;;5.1;;
37365;SDS011;23239;51.504;7.456;2023-07-09T02:41:00;9.0;;;5.1;;
37365;SDS011;23239;51.504;7.456;2023-07-09T02:42:00;9.0;;;5.1;;
37365;SDS011;23239;51.504;7.456;2023-07-09T02:43:00;7.6;;;5.1;;
37365;SDS011;23239;51.504;7.456;2023-07-09T02:44:00;7.6;;;5.1;;
37365;SDS011;23239;51.504;7.456;2023-07-09T02:45:00;7.6;;;5.1;;
37365;SDS011;23239;51.504;7.456;2023-07-09T02:46:00;7.6;;;5.1;;
37365;SDS011;23239;51.504;7.456;2023-07-09T02:47:00;7.6;;;5.1;;
37365;SDS011;23239;51.504;7.456;2023-07-09T02:48:00;7.5;;;5.2;;
37365;SDS011;23239;51.504;7.456;2023-07-09T02:49:00;7.5;;;5.2;;
37365;SDS011;23239;51.504;7.456;2023-07-09T02:50:00;7.5;;;5.2;;
37365;SDS011;23239;51.504;7.456;2023-07-09T02:51:00;7.5;;;5.2;;
37365;SDS011;23239;51.504;7.456;2023-07-09T02:52:00;7.5;;;5.2;;
37365;SDS011;23239;51.504;7.456;2023-07-09T02:53:00;7.9;;;5.1;;
37365;SDS011;23239;51.504;7.456;2023-07-09T02:54:01;7.9;;;5.1;;
37365;SDS011;23239;51.504;7.456;2023-07-09T02:55:00;7.9;;;5.1;;
37365;SDS011;23239;51.504;7.456;2023-07-09T02:56:00;7.9;;;5.1;;
37365;SDS011;23239;51.504;7.456;2023-07-09T02:57:00;7.9;;;5.1;;
37365;SDS011;23239;51.504;7.456;2023-07-09T02:58:00;9.4;;;5.1;;
37365;SDS011;23239;51.504;7.456;2023-07-09T02:59:00;9.4;;;5.1;;
37365;SDS011;23239;51.504;7.456;2023-07-09T03:00:00;9.4;;;5.1;;
37365;SDS011;23239;51.504;7.456;2023-07-09T03:01:00;9.4;;;5.1;;
37365;SDS011;23239;51.504;7.456;2023-07-09T03:02:00;9.4;;;5.1;;
37365;SDS011;23239;51.504;7.456;2023-07-09T03:03:00;8.6;;;5.0;;
37365;SDS011;23239;51.504;7.456;2023-07-09T03:04:00;8.6;;;5.0;;
37365;SDS011;23239;51.504;7.456;2023-07-09T03:05:00;8.6;;;5.0;;
37365;SDS011;23239;51.504;7.456;2023-07-09T03:06:00;8.6;;;5.0;;
37365;SDS011;23239;51.504;7.456;2023-07-09T03:07:00;8.6;;;5.0;;
37365;SDS011;23239;51.504;7.456;2023-07-09T03:08:00;8.7;;;5.0;;
37365;SDS011;23239;51.504;7.456;2023-07-09T03:09:00;8.7;;;5.0;;
37365;SDS011;23239;51.504;7.456;2023-07-09T03:10:00;8.7;;;5.0;;
37365;SDS011;23239;51.504;7.456;2023-07-09T03:11:00;8.7;;;5.0;;
37365;SDS011;23239;51.504;7.456;2023-07-09T03:12:00;8.7;;;5.0;;
37365;SDS011;23239;51.504;7.456;2023-07-09T03:13:00;7.9;;;5.0;;
37365;SDS011;23239;51.504;7.456;2023-07-09T03:14:00;7.9;;;5.0;;
37365;SDS011;23239;51.504;7.456;2023-07-09T03:15:00;7.9;;;5.0;;
37365;SDS011;23239;51.504;7.456;2023-07-09T03:16:00;7.9;;;5.0;;
37365;SDS011;23239;51.504;7.456;2023-07-09T03:17:00;7.9;;;5.0;;
37365;SDS011;23239;51.504;7.456;2023-07-09T03:18:00;7.1;;;5.0;;
37365;SDS011;23239;51.504;7.456;2023-07-09T03:19:00;7.1;;;5.0;;
37365;SDS011;23239;51.504;7.456;2023-07-09T03:20:01;7.1;;;5.0;;
37365;SDS011;23239;51.504;7.456;2023-07-09T03:21:00;7.1;;;5.0;;
37365;SDS011;23239;51.504;7.456;2023-07-09T03:22:00;7.1;;;5.0;;
37365;SDS011;23239;51.504;7.456;2023-07-09T03:23:00;7.9;;;5.1;;
37365;SDS011;23239;51.504;7.456;2023-07-09T03:24:00;7.9;;;5.1;;
37365;SDS011;23239;51.504;7.456;2023-07-09T03:25:00;7.9;;;5.1;;
37365;SDS011;23239;51.504;7.456;2023-07-09T03:26:00;7.9;;;5.1;;
37365;SDS011;23239;51.504;7.456;2023-07-09T03:27:00;7.9;;;5.1;;
37365;SDS011;23239;51.504;7.456;2023-07-09T03:28:00;8.3;;;5.6;;
37365;SDS011;23239;51.504;7.456;2023-07-09T03:29:00;8.3;;;5.6;;
37365;SDS011;23239;51.504;7.456;2023-07-09T03:30:00;8.3;;;5.6;;
37365;SDS011;23239;51.504;7.456;2023-07-09T03:31:00;8.3;;;5.6;;
37365;SDS011;23239;51.504;7.456;2023-07-09T03:32:00;8.3;;;5.6;;
37365;SDS011;23239;51.504;7.456;2023-07-09T03:33:00;7.4;;;5.3;;
37365;SDS011;23239;51.504;7.456;2023-07-09T03:34:00;7.4;;;5.3;;
37365;SDS011;23239;51.504;7.456;2023-07-09T03:35:00;7.4;;;5.3;;
37365;SDS011;23239;51.504;7.456;2023-07-09T03:36:00;7.4;;;5.3;;
37365;SDS011;23239;51.504;7.456;2023-07-09T03:37:00;7.4;;;5.3;;
37365;SDS011;23239;51.504;7.456;2023-07-09T03:38:00;6.6;;;4.9;;
37365;SDS011;23239;51.504;7.456;2023-07-09T03:39:00;6.6;;;4.9;;
37365;SDS011;23239;51.504;7.456;2023-07-09T03:40:01;6.6;;;4.9;;
37365;SDS011;23239;51.504;7.456;2023-07-09T03:41:00;6.6;;;4.9;;
37365;SDS011;23239;51.504;7.456;2023-07-09T03:42:00;6.6;;;4.9;;
37365;SDS011;23239;51.504;7.456;2023-07-09T03:43:00;8.4;;;5.4;;
37365;SDS011;23239;51.504;7.456;2023-07-09T03:44:00;8.4;;;5.4;;
37365;SDS011;23239;51.504;7.456;2023-07-09T03:45:00;8.4;;;5.4;;
37365;SDS011;23239;51.504;7.456;2023-07-09T03:46:00;8.4;;;5.4;;
37365;SDS011;23239;51.504;7.456;2023-07-09T03:47:00;8.4;;;5.4;;
37365;SDS011;23239;51.504;7.456;2023-07-09T03:48:00;8.2;;;5.3;;
37365;SDS011;23239;51.504;7.456;2023-07-09T03:49:00;8.2;;;5.3;;
37365;SDS011;23239;51.504;7.456;2023-07-09T03:50:00;8.2;;;5.3;;
37365;SDS011;23239;51.504;7.456;2023-07-09T03:51:00;8.2;;;5.3;;
37365;SDS011;23239;51.504;7.456;2023-07-09T03:52:00;8.2;;;5.3;;
37365;SDS011;23239;51.504;7.456;2023-07-09T03:53:00;11.4;;;5.8;;
37365;SDS011;23239;51.504;7.456;2023-07-09T03:54:00;11.4;;;5.8;;
37365;SDS011;23239;51.504;7.456;2023-07-09T03:55:00;11.4;;;5.8;;
37365;SDS011;23239;51.504;7.456;2023-07-09T03:56:00;11.4;;;5.8;;
37365;SDS011;23239;51.504;7.456;2023-07-09T03:57:00;11.4;;;5.8;;
37365;SDS011;23239;51.504;7.456;2023-07-09T03:58:00;7.4;;;4.8;;
37365;SDS011;23239;51.504;7.456;2023-07-09T03:59:00;7.4;;;4.8;;
37365;SDS011;23239;51.504;7.456;2023-07-09T04:00:00;7.4;;;4.8;;
37365;SDS011;23239;51.504;7.456;2023-07-09T04:01:01;7.4;;;4.8;;
37365;SDS011;23239;51.504;7.456;2023-07-09T04:02:00;7.4;;;4.8;;
37365;SDS011;23239;51.504;7.456;2023-07-09T04:03:00;8.6;;;5.3;;
37365;SDS011;23239;51.504;7.456;2023-07-09T04:04:00;8.6;;;5.3;;
37365;SDS011;23239;51.504;7.456;2023-07-09T04:05:00;8.6;;;5.3;;
37365;SDS011;23239;51.504;7.456;2023-07-09T04:06:00;8.6;;;5.3;;
37365;SDS011;23239;51.504;7.456;2023-07-09T04:07:00;8.6;;;5.3;;
37365;SDS011;23239;51.504;7.456;2023-07-09T04:08:00;8.4;;;5.4;;
37365;SDS011;23239;51.504;7.456;2023-07-09T04:09:00;8.4;;;5.4;;
37365;SDS011;23239;51.504;7.456;2023-07-09T04:10:00;8.4;;;5.4;;
37365;SDS011;23239;51.504;7.456;2023-07-09T04:11:01;8.4;;;5.4;;
37365;SDS011;23239;51.504;7.456;2023-07-09T04:12:00;8.4;;;5.4;;
37365;SDS011;23239;51.504;7.456;2023-07-09T04:13:00;8.4;;;5.2;;
37365;SDS011;23239;51.504;7.456;2023-07-09T04:14:00;8.4;;;5.2;;
37365;SDS011;23239;51.504;7.456;2023-07-09T04:15:00;8.4;;;5.2;;
37365;SDS011;23239;51.504;7.456;2023-07-09T04:16:00;8.4;;;5.2;;
37365;SDS011;23239;51.504;7.456;2023-07-09T04:17:00;8.4;;;5.2;;
37365;SDS011;23239;51.504;7.456;2023-07-09T04:18:00;8.6;;;5.2;;
37365;SDS011;23239;51.504;7.456;2023-07-09T04:19:00;8.6;;;5.2;;
37365;SDS011;23239;51.504;7.456;2023-07-09T04:20:01;8.6;;;5.2;;
37365;SDS011;23239;51.504;7.456;2023-07-09T04:21:00;8.6;;;5.2;;
37365;SDS011;23239;51.504;7.456;2023-07-09T04:22:00;8.6;;;5.2;;
37365;SDS011;23239;51.504;7.456;2023-07-09T04:23:00;7.4;;;5.1;;
37365;SDS011;23239;51.504;7.456;2023-07-09T04:24:00;7.4;;;5.1;;
37365;SDS011;23239;51.504;7.456;2023-07-09T04:25:00;7.4;;;5.1;;
37365;SDS011;23239;51.504;7.456;2023-07-09T04:26:00;7.4;;;5.1;;
37365;SDS011;23239;51.504;7.456;2023-07-09T04:27:00;7.4;;;5.1;;
37365;SDS011;23239;51.504;7.456;2023-07-09T04:28:00;8.0;;;5.1;;
37365;SDS011;23239;51.504;7.456;2023-07-09T04:29:00;8.0;;;5.1;;
37365;SDS011;23239;51.504;7.456;2023-07-09T04:30:00;8.0;;;5.1;;
37365;SDS011;23239;51.504;7.456;2023-07-09T04:31:00;8.0;;;5.1;;
37365;SDS011;23239;51.504;7.456;2023-07-09T04:32:00;8.0;;;5.1;;
37365;SDS011;23239;51.504;7.456;2023-07-09T04:33:00;8.4;;;5.2;;
37365;SDS011;23239;51.504;7.456;2023-07-09T04:34:00;8.4;;;5.2;;
37365;SDS011;23239;51.504;7.456;2023-07-09T04:35:00;8.4;;;5.2;;
37365;SDS011;23239;51.504;7.456;2023-07-09T04:36:00;8.4;;;5.2;;
37365;SDS011;23239;51.504;7.456;2023-07-09T04:37:00;8.4;;;5.2;;
37365;SDS011;23239;51.504;7.456;2023-07-09T04:38:00;7.9;;;5.0;;
37365;SDS011;23239;51.504;7.456;2023-07-09T04:39:00;7.9;;;5.0;;
37365;SDS011;23239;51.504;7.456;2023-07-09T04:40:00;7.9;;;5.0;;
37365;SDS011;23239;51.504;7.456;2023-07-09T04:41:00;7.9;;;5.0;;
37365;SDS011;23239;51.504;7.456;2023-07-09T04:42:00;7.9;;;5.0;;
37365;SDS011;23239;51.504;7.456;2023-07-09T04:43:00;9.4;;;5.6;;
37365;SDS011;23239;51.504;7.456;2023-07-09T04:44:00;9.4;;;5.6;;
37365;SDS011;23239;51.504;7.456;2023-07-09T04:45:00;9.4;;;5.6;;
37365;SDS011;23239;51.504;7.456;2023-07-09T04:46:00;9.4;;;5.6;;
37365;SDS011;23239;51.504;7.456;2023-07-09T04:47:00;9.4;;;5.6;;
37365;SDS011;23239;51.504;7.456;2023-07-09T04:48:00;10.4;;;5.7;;
37365;SDS011;23239;51.504;7.456;2023-07-09T04:49:00;10.4;;;5.7;;
37365;SDS011;23239;51.504;7.456;2023-07-09T04:50:00;10.4;;;5.7;;
37365;SDS011;23239;51.504;7.456;2023-07-09T04:51:00;10.4;;;5.7;;
37365;SDS011;23239;51.504;7.456;2023-07-09T04:52:00;10.4;;;5.7;;
37365;SDS011;23239;51.504;7.456;2023-07-09T04:53:00;8.7;;;5.6;;
37365;SDS011;23239;51.504;7.456;2023-07-09T04:54:00;8.7;;;5.6;;
37365;SDS011;23239;51.504;7.456;2023-07-09T04:55:00;8.7;;;5.6;;
37365;SDS011;23239;51.504;7.456;2023-07-09T04:56:00;8.7;;;5.6;;
37365;SDS011;23239;51.504;7.456;2023-07-09T04:57:00;8.7;;;5.6;;
37365;SDS011;23239;51.504;7.456;2023-07-09T04:58:00;9.0;;;5.0;;
37365;SDS011;23239;51.504;7.456;2023-07-09T04:59:00;9.0;;;5.0;;
37365;SDS011;23239;51.504;7.456;2023-07-09T05:00:00;9.0;;;5.0;;
37365;SDS011;23239;51.504;7.456;2023-07-09T05:01:00;9.0;;;5.0;;
37365;SDS011;23239;51.504;7.456;2023-07-09T05:02:00;9.0;;;5.0;;
37365;SDS011;23239;51.504;7.456;2023-07-09T05:03:00;8.0;;;5.3;;
37365;SDS011;23239;51.504;7.456;2023-07-09T05:04:00;8.0;;;5.3;;
37365;SDS011;23239;51.504;7.456;2023-07-09T05:05:00;8.0;;;5.3;;
37365;SDS011;23239;51.504;7.456;2023-07-09T05:06:00;8.0;;;5.3;;
37365;SDS011;23239;51.504;7.456;2023-07-09T05:07:00;8.0;;;5.3;;
37365;SDS011;23239;51.504;7.456;2023-07-09T05:08:00;8.8;;;5.2;;
37365;SDS011;23239;51.504;7.456;2023-07-09T05:09:00;8.8;;;5.2;;
37365;SDS011;23239;51.504;7.456;2023-07-09T05:10:00;8.8;;;5.2;;
37365;SDS011;23239;51.504;7.456;2023-07-09T05:11:00;8.8;;;5.2;;
37365;SDS011;23239;51.504;7.456;2023-07-09T05:12:00;8.8;;;5.2;;
37365;SDS011;23239;51.504;7.456;2023-07-09T05:13:00;8.9;;;5.4;;
37365;SDS011;23239;51.504;7.456;2023-07-09T05:14:00;8.9;;;5.4;;
37365;SDS011;23239;51.504;7.456;2023-07-09T05:15:00;8.9;;;5.4;;
37365;SDS011;23239;51.504;7.456;2023-07-09T05:16:00;8.9;;;5.4;;
37365;SDS011;23239;51.504;7.456;2023-07-09T05:17:00;8.9;;;5.4;;
37365;SDS011;23239;51.504;7.456;2023-07-09T05:18:00;7.8;;;5.3;;
37365;SDS011;23239;51.504;7.456;2023-07-09T05:19:00;7.8;;;5.3;;
37365;SDS011;23239;51.504;7.456;2023-07-09T05:20:00;7.8;;;5.3;;
37365;SDS011;23239;51.504;7.456;2023-07-09T05:21:00;7.8;;;5.3;;
37365;SDS011;23239;51.504;7.456;2023-07-09T05:22:00;7.8;;;5.3;;
37365;SDS011;23239;51.504;7.456;2023-07-09T05:23:00;7.7;;;5.0;;
37365;SDS011;23239;51.504;7.456;2023-07-09T05:24:00;7.7;;;5.0;;
37365;SDS011;23239;51.504;7.456;2023-07-09T05:25:00;7.7;;;5.0;;
37365;SDS011;23239;51.504;7.456;2023-07-09T05:26:00;7.7;;;5.0;;
37365;SDS011;23239;51.504;7.456;2023-07-09T05:27:00;7.7;;;5.0;;
37365;SDS011;23239;51.504;7.456;2023-07-09T05:28:00;8.0;;;5.2;;
37365;SDS011;23239;51.504;7.456;2023-07-09T05:29:01;8.0;;;5.2;;
37365;SDS011;23239;51.504;7.456;2023-07-09T05:30:00;8.0;;;5.2;;
37365;SDS011;23239;51.504;7.456;2023-07-09T05:31:00;8.0;;;5.2;;
37365;SDS011;23239;51.504;7.456;2023-07-09T05:32:00;8.0;;;5.2;;
37365;SDS011;23239;51.504;7.456;2023-07-09T05:33:00;8.6;;;5.7;;
37365;SDS011;23239;51.504;7.456;2023-07-09T05:34:00;8.6;;;5.7;;
37365;SDS011;23239;51.504;7.456;2023-07-09T05:35:00;8.6;;;5.7;;
37365;SDS011;23239;51.504;7.456;2023-07-09T05:36:00;8.6;;;5.7;;
37365;SDS011;23239;51.504;7.456;2023-07-09T05:37:00;8.6;;;5.7;;
37365;SDS011;23239;51.504;7.456;2023-07-09T05:38:00;9.0;;;5.2;;
37365;SDS011;23239;51.504;7.456;2023-07-09T05:39:00;9.0;;;5.2;;
37365;SDS011;23239;51.504;7.456;2023-07-09T05:40:00;9.0;;;5.2;;
37365;SDS011;23239;51.504;7.456;2023-07-09T05:41:00;9.0;;;5.2;;
37365;SDS011;23239;51.504;7.456;2023-07-09T05:42:00;9.0;;;5.2;;
37365;SDS011;23239;51.504;7.456;2023-07-09T05:43:00;7.4;;;5.1;;
37365;SDS011;23239;51.504;7.456;2023-07-09T05:44:00;7.4;;;5.1;;
37365;SDS011;23239;51.504;7.456;2023-07-09T05:45:00;7.4;;;5.1;;
37365;SDS011;23239;51.504;7.456;2023-07-09T05:46:00;7.4;;;5.1;;
37365;SDS011;23239;51.504;7.456;2023-07-09T05:47:00;7.4;;;5.1;;
37365;SDS011;23239;51.504;7.456;2023-07-09T05:48:00;9.9;;;5.7;;
37365;SDS011;23239;51.504;7.456;2023-07-09T05:49:00;9.9;;;5.7;;
37365;SDS011;23239;51.504;7.456;2023-07-09T05:50:00;9.9;;;5.7;;
37365;SDS011;23239;51.504;7.456;2023-07-09T05:51:00;9.9;;;5.7;;
37365;SDS011;23239;51.504;7.456;2023-07-09T05:52:00;9.9;;;5.7;;
37365;SDS011;23239;51.504;7.456;2023-07-09T05:53:00;8.6;;;5.3;;
37365;SDS011;23239;51.504;7.456;2023-07-09T05:54:00;8.6;;;5.3;;
37365;SDS011;23239;51.504;7.456;2023-07-09T05:55:00;8.6;;;5.3;;
37365;SDS011;23239;51.504;7.456;2023-07-09T05:56:00;8.6;;;5.3;;
37365;SDS011;23239;51.504;7.456;2023-07-09T05:57:00;8.6;;;5.3;;
37365;SDS011;23239;51.504;7.456;2023-07-09T05:58:00;9.3;;;5.6;;
37365;SDS011;23239;51.504;7.456;2023-07-09T05:59:00;9.3;;;5.6;;
37365;SDS011;23239;51.504;7.456;2023-07-09T06:00:00;9.3;;;5.6;;
37365;SDS011;23239;51.504;7.456;2023-07-09T06:01:00;9.3;;;5.6;;
37365;SDS011;23239;51.504;7.456;2023-07-09T06:02:00;9.3;;;5.6;;
37365;SDS011;23239;51.504;7.456;2023-07-09T06:03:00;9.4;;;5.5;;
37365;SDS011;23239;51.504;7.456;2023-07-09T06:04:00;9.4;;;5.5;;
37365;SDS011;23239;51.504;7.456;2023-07-09T06:05:00;9.4;;;5.5;;
37365;SDS011;23239;51.504;7.456;2023-07-09T06:06:00;9.4;;;5.5;;
37365;SDS011;23239;51.504;7.456;2023-07-09T06:07:00;9.4;;;5.5;;
37365;SDS011;23239;51.504;7.456;2023-07-09T06:08:00;10.6;;;5.9;;
37365;SDS011;23239;51.504;7.456;2023-07-09T06:09:00;10.6;;;5.9;;
37365;SDS011;23239;51.504;7.456;2023-07-09T06:10:00;10.6;;;5.9;;
37365;SDS011;23239;51.504;7.456;2023-07-09T06:11:01;10.6;;;5.9;;
37365;SDS011;23239;51.504;7.456;2023-07-09T06:12:00;10.6;;;5.9;;
37365;SDS011;23239;51.504;7.456;2023-07-09T06:13:00;8.5;;;5.5;;
37365;SDS011;23239;51.504;7.456;2023-07-09T06:14:00;8.5;;;5.5;;
37365;SDS011;23239;51.504;7.456;2023-07-09T06:15:00;8.5;;;5.5;;